Time;durP1;ratioP1;P1;durP2;ratioP2;P2;SDS_P1;SDS_P2;PMS_P1;PMS_P2;Temp;Humidity;BMP_temperature;BMP_pressure;BME280_temperature;BME280_humidity;BME280_pressure;Samples;Min_cycle;Max_cycle;Signal;HPM_P1;HPM_P2
2021/04/04 00:02:10;;;;;;;3.93;3.63;;;;;;;3.75;81.74;101398.19;4992129;28;20173;-72
2021/04/04 00:04:35;;;;;;;7.07;2.07;;;;;;;3.77;81.78;101390.69;4992120;28;20177;-73
2021/04/04 00:07:01;;;;;;;3.00;2.43;;;;;;;3.77;81.98;101390.69;4991991;28;20201;-73
2021/04/04 00:09:26;;;;;;;1.93;1.83;;;;;;;3.73;82.29;101400.31;4991982;28;20619;-72
2021/04/04 00:11:51;;;;;;;2.10;1.90;;;;;;;3.73;82.40;101390.31;4991779;28;20259;-73
2021/04/04 00:14:17;;;;;;;6.00;2.00;;;;;;;3.72;82.74;101399.50;4991619;28;20254;-73
2021/04/04 00:16:43;;;;;;;7.33;2.73;;;;;;;3.77;82.75;101387.97;4991857;28;20531;-73
2021/04/04 00:19:09;;;;;;;8.97;3.63;;;;;;;3.80;82.84;101392.88;4991953;28;20173;-73
2021/04/04 00:21:34;;;;;;;5.83;3.53;;;;;;;3.81;82.59;101389.13;4991655;28;20504;-73
2021/04/04 00:24:01;;;;;;;16.87;3.17;;;;;;;3.84;82.76;101386.75;4991330;28;20181;-72
2021/04/04 00:26:26;;;;;;;6.33;3.03;;;;;;;3.88;82.45;101381.66;4991801;28;20169;-73
2021/04/04 00:28:51;;;;;;;3.00;1.90;;;;;;;3.88;82.00;101381.66;4991682;28;20772;-72
2021/04/04 00:31:16;;;;;;;3.70;3.37;;;;;;;3.92;82.37;101384.72;4991575;28;20320;-73
2021/04/04 00:33:43;;;;;;;4.37;3.97;;;;;;;3.92;82.11;101382.00;4991292;28;20216;-72
2021/04/04 00:36:08;;;;;;;1.87;1.77;;;;;;;3.96;81.64;101389.38;4991555;28;20511;-72
2021/04/04 00:38:33;;;;;;;5.07;2.93;;;;;;;4.01;81.31;101375.13;4991599;28;20295;-73
2021/04/04 00:40:59;;;;;;;2.93;2.63;;;;;;;4.00;80.91;101366.19;4991399;28;20189;-72
2021/04/04 00:43:24;;;;;;;8.13;2.23;;;;;;;4.00;80.81;101368.91;4991290;28;20696;-72
2021/04/04 00:45:50;;;;;;;3.23;2.40;;;;;;;3.96;81.39;101373.16;4991458;28;20244;-74
2021/04/04 00:48:15;;;;;;;3.23;2.93;;;;;;;3.95;81.16;101381.53;4991384;28;20528;-72
2021/04/04 00:50:41;;;;;;;8.97;2.73;;;;;;;3.92;81.36;101366.63;4991310;28;20277;-73
2021/04/04 00:53:07;;;;;;;2.93;2.73;;;;;;;3.90;81.06;101371.41;4991232;28;20597;-72
2021/04/04 00:55:34;;;;;;;6.87;2.20;;;;;;;3.88;81.54;101377.06;4991256;28;20652;-72
2021/04/04 00:57:59;;;;;;;3.57;2.43;;;;;;;3.86;81.49;101375.69;4991512;28;20285;-73
2021/04/04 01:00:28;;;;;;;7.23;2.33;;;;;;;3.89;81.54;101375.19;4990025;28;20656;-73
2021/04/04 01:02:55;;;;;;;2.70;2.13;;;;;;;3.89;81.09;101378.72;4991230;28;20181;-73
2021/04/04 01:05:28;;;;;;;8.20;2.57;;;;;;;3.88;80.98;101370.84;4990833;28;20180;-73
2021/04/04 01:07:56;;;;;;;2.63;2.27;;;;;;;3.89;81.02;101372.47;4991762;28;20193;-72
2021/04/04 01:10:24;;;;;;;4.87;2.43;;;;;;;3.87;81.36;101380.03;4991236;28;20211;-73
2021/04/04 01:13:18;;;;;;;7.57;2.90;;;;;;;3.91;81.23;101399.31;4991052;28;20209;-73
2021/04/04 01:15:49;;;;;;;1.67;1.40;;;;;;;3.91;81.30;101389.31;4992310;28;20174;-73
2021/04/04 01:18:25;;;;;;;5.43;1.93;;;;;;;3.92;81.22;101390.13;5000865;28;20170;-73
2021/04/04 01:20:56;;;;;;;1.70;1.53;;;;;;;3.94;81.75;101388.81;4995415;28;20593;-73
2021/04/04 01:23:56;;;;;;;3.70;2.07;;;;;;;3.94;81.50;101394.22;4992138;28;20633;-73
2021/04/04 01:26:52;;;;;;;7.83;2.00;;;;;;;3.92;81.13;101390.94;4990222;28;20193;-74
2021/04/04 01:29:22;;;;;;;5.20;3.33;;;;;;;3.92;81.11;101390.94;4991165;28;20177;-74
2021/04/04 01:31:50;;;;;;;3.07;1.67;;;;;;;3.96;81.94;101381.28;4991045;28;20197;-74
2021/04/04 01:34:18;;;;;;;3.53;3.00;;;;;;;4.01;81.61;101378.66;4991089;28;20173;-74
2021/04/04 01:36:47;;;;;;;2.57;2.17;;;;;;;4.03;81.10;101390.03;4991093;28;20235;-74
2021/04/04 01:39:15;;;;;;;2.67;2.27;;;;;;;4.02;80.68;101374.06;4990930;28;20675;-73
2021/04/04 01:41:42;;;;;;;4.53;2.47;;;;;;;4.01;80.60;101375.13;4991008;28;20633;-73
2021/04/04 01:44:19;;;;;;;7.30;2.10;;;;;;;4.00;80.63;101387.00;4990974;28;20181;-74
2021/04/04 01:46:49;;;;;;;15.17;3.37;;;;;;;4.02;80.59;101374.88;4991203;28;20236;-73
2021/04/04 01:49:17;;;;;;;8.60;2.07;;;;;;;4.06;80.62;101384.16;4991015;28;20177;-73
2021/04/04 01:51:44;;;;;;;4.37;2.90;;;;;;;4.09;80.87;101374.72;4990775;28;20244;-74
2021/04/04 01:54:11;;;;;;;9.40;1.90;;;;;;;4.06;80.52;101370.63;4990895;28;20201;-74
2021/04/04 01:56:37;;;;;;;6.63;3.03;;;;;;;4.04;80.46;101375.44;4990825;28;20224;-73
2021/04/04 01:59:03;;;;;;;1.97;1.87;;;;;;;4.03;80.28;101373.81;4990893;28;20181;-73
2021/04/04 02:01:29;;;;;;;1.83;0.97;;;;;;;3.99;80.22;101366.44;4990867;28;20503;-74
2021/04/04 02:03:59;;;;;;;12.53;2.53;;;;;;;3.97;80.24;101365.88;4990651;28;20272;-73
2021/04/04 02:06:25;;;;;;;2.70;2.10;;;;;;;3.96;80.29;101367.75;4990814;28;20471;-73
2021/04/04 02:08:52;;;;;;;8.67;2.67;;;;;;;3.99;80.39;101364.56;4990779;28;20177;-73
2021/04/04 02:11:20;;;;;;;4.27;2.40;;;;;;;3.98;80.44;101362.91;4990634;28;20201;-74
2021/04/04 02:13:49;;;;;;;10.33;2.53;;;;;;;3.99;80.56;101361.03;4990626;28;20177;-73
2021/04/04 02:16:16;;;;;;;2.07;1.83;;;;;;;3.97;80.20;101361.28;4990698;28;20239;-74
2021/04/04 02:18:45;;;;;;;3.37;2.07;;;;;;;4.01;80.68;101357.00;4993823;28;20235;-74
2021/04/04 02:21:12;;;;;;;2.23;2.03;;;;;;;3.97;79.82;101355.88;4994121;28;20544;-74
2021/04/04 02:23:38;;;;;;;6.73;1.67;;;;;;;3.98;80.09;101352.09;4993668;28;20180;-73
2021/04/04 02:26:03;;;;;;;2.57;2.37;;;;;;;3.97;79.51;101355.06;4994080;28;20568;-73
2021/04/04 02:28:30;;;;;;;5.90;2.43;;;;;;;3.99;79.78;101350.22;4994094;28;20177;-73
2021/04/04 02:30:55;;;;;;;4.57;1.77;;;;;;;4.01;79.51;101348.91;5009077;28;20268;-73
2021/04/04 02:33:37;;;;;;;2.70;2.50;;;;;;;4.02;79.64;101347.03;4993623;28;20292;-73
2021/04/04 02:36:06;;;;;;;1.13;1.03;;;;;;;3.99;79.66;101348.34;4993821;28;20173;-73
2021/04/04 02:38:35;;;;;;;1.90;1.67;;;;;;;3.98;79.96;101343.19;4993826;28;20256;-73
2021/04/04 02:41:04;;;;;;;1.40;1.27;;;;;;;3.97;79.51;101346.94;4993933;28;20181;-73
2021/04/04 02:43:31;;;;;;;0.70;0.70;;;;;;;3.96;79.84;101345.31;4993596;28;20185;-73
2021/04/04 02:45:59;;;;;;;5.13;1.30;;;;;;;3.95;80.15;101349.91;4993673;28;20640;-73
2021/04/04 02:48:36;;;;;;;3.80;1.87;;;;;;;3.96;80.16;101346.13;4993574;28;20240;-74
2021/04/04 02:51:04;;;;;;;3.30;1.70;;;;;;;3.97;80.57;101350.47;4993498;28;20196;-73
2021/04/04 02:53:33;;;;;;;6.37;1.63;;;;;;;4.00;80.95;101344.56;4993416;28;20184;-73
2021/04/04 02:56:00;;;;;;;5.37;2.03;;;;;;;4.02;80.66;101341.63;4993450;28;20180;-73
2021/04/04 02:58:27;;;;;;;10.00;3.77;;;;;;;4.02;81.12;101347.03;4993481;28;20261;-73
2021/04/04 03:00:57;;;;;;;8.73;1.53;;;;;;;4.03;81.38;101344.06;4993372;28;20173;-73
2021/04/04 03:03:26;;;;;;;7.53;1.80;;;;;;;4.03;81.64;101341.38;4993193;28;20268;-73
2021/04/04 03:05:55;;;;;;;5.57;1.47;;;;;;;4.01;81.51;101337.28;4993200;28;20520;-74
2021/04/04 03:08:21;;;;;;;1.47;0.87;;;;;;;3.98;81.30;101338.59;4993338;28;20181;-74
2021/04/04 03:10:51;;;;;;;4.33;2.00;;;;;;;3.97;81.51;101339.66;4993309;28;20177;-74
2021/04/04 03:13:19;;;;;;;2.57;2.30;;;;;;;4.00;81.33;101335.63;4992876;28;20205;-73
2021/04/04 03:15:46;;;;;;;3.17;2.20;;;;;;;4.00;81.00;101341.88;4993068;28;20177;-73
2021/04/04 03:18:11;;;;;;;10.13;2.33;;;;;;;3.99;81.45;101329.41;4993089;28;20184;-73
2021/04/04 03:20:38;;;;;;;3.07;1.63;;;;;;;3.99;81.46;101334.81;4993048;28;20174;-72
2021/04/04 03:23:04;;;;;;;7.77;2.47;;;;;;;3.94;81.65;101326.63;4992851;28;20185;-73
2021/04/04 03:25:29;;;;;;;1.00;0.97;;;;;;;3.94;81.39;101325.81;4992644;28;20658;-72
2021/04/04 03:27:56;;;;;;;4.17;2.07;;;;;;;3.93;81.90;101324.19;4992613;28;20305;-74
2021/04/04 03:33:07;;;;;;;4.07;1.87;;;;;;;3.90;81.55;101320.06;4992660;28;20223;-73
2021/04/04 03:35:34;;;;;;;2.67;2.47;;;;;;;3.91;81.72;101329.03;4992635;28;20632;-72
2021/04/04 03:38:03;;;;;;;2.83;1.67;;;;;;;3.86;80.94;101319.75;4992626;28;20640;-73
2021/04/04 03:40:29;;;;;;;2.93;1.63;;;;;;;3.85;81.04;101310.00;4992432;28;20284;-73
2021/04/04 03:42:57;;;;;;;12.77;2.87;;;;;;;3.85;80.44;101307.28;4992488;28;20576;-73
2021/04/04 03:45:24;;;;;;;2.57;2.37;;;;;;;3.83;80.65;101306.72;4992550;28;20251;-73
2021/04/04 03:47:51;;;;;;;1.43;1.33;;;;;;;3.79;80.65;101307.47;4992450;28;20181;-73
2021/04/04 03:50:18;;;;;;;8.07;1.20;;;;;;;3.80;80.73;101303.69;4992367;28;20170;-73
2021/04/04 03:52:46;;;;;;;0.93;0.90;;;;;;;3.77;80.73;101304.19;4992141;28;20197;-73
2021/04/04 03:55:13;;;;;;;20.53;2.07;;;;;;;3.76;80.96;101295.25;4992919;28;20181;-73
2021/04/04 03:57:39;;;;;;;0.57;0.57;;;;;;;3.73;81.07;101293.03;4992487;28;20173;-73
2021/04/04 04:00:08;;;;;;;8.03;1.70;;;;;;;3.73;80.94;101303.03;4992409;28;20181;-73
2021/04/04 04:02:36;;;;;;;0.60;0.60;;;;;;;3.71;81.48;101305.97;4992197;28;20181;-73
2021/04/04 04:05:04;;;;;;;1.47;1.20;;;;;;;3.72;81.52;101299.50;4992055;28;20208;-73
2021/04/04 04:07:32;;;;;;;1.63;1.53;;;;;;;3.74;81.48;101301.94;4992071;28;20185;-72
2021/04/04 04:10:00;;;;;;;2.93;2.23;;;;;;;3.76;81.35;101306.06;4992163;28;20252;-73
2021/04/04 04:12:27;;;;;;;1.13;1.13;;;;;;;3.77;81.58;101304.19;4991916;28;20526;-73
2021/04/04 04:14:55;;;;;;;1.63;1.53;;;;;;;3.77;81.64;101299.59;4992040;28;20281;-73
2021/04/04 04:17:22;;;;;;;5.80;1.73;;;;;;;3.76;81.49;101292.56;4991879;28;20174;-72
2021/04/04 04:19:48;;;;;;;2.53;2.43;;;;;;;3.73;81.44;101286.81;4991992;28;20181;-73
2021/04/04 04:22:13;;;;;;;1.70;1.60;;;;;;;3.70;81.50;101279.19;4991847;28;20590;-73
2021/04/04 04:24:39;;;;;;;11.10;2.37;;;;;;;3.68;81.72;101278.63;4991789;28;20181;-73
2021/04/04 04:27:05;;;;;;;10.83;1.57;;;;;;;3.69;81.19;101277.56;4992077;28;20177;-73
2021/04/04 04:29:32;;;;;;;3.30;1.30;;;;;;;3.66;80.47;101269.94;4991818;28;20182;-73
2021/04/04 04:32:00;;;;;;;1.77;1.67;;;;;;;3.65;80.73;101268.31;4991701;28;20211;-74
2021/04/04 04:34:28;;;;;;;14.10;3.37;;;;;;;3.65;80.69;101271.84;4991825;28;20178;-73
2021/04/04 04:36:54;;;;;;;1.13;1.13;;;;;;;3.70;80.23;101262.97;4991808;28;20181;-73
2021/04/04 04:39:20;;;;;;;10.63;3.30;;;;;;;3.73;80.43;101268.72;4991221;28;20193;-72
2021/04/04 04:41:49;;;;;;;4.23;2.17;;;;;;;3.76;79.87;101268.25;4991530;28;20532;-74
2021/04/04 04:44:20;;;;;;;2.17;2.00;;;;;;;3.76;80.23;101264.69;4991536;28;20185;-73
2021/04/04 04:46:46;;;;;;;2.63;2.43;;;;;;;3.75;79.63;101263.06;4991666;28;20203;-73
2021/04/04 04:49:11;;;;;;;0.90;0.87;;;;;;;3.74;80.40;101264.94;4991534;28;20654;-72
2021/04/04 04:51:37;;;;;;;5.60;1.17;;;;;;;3.73;80.38;101263.31;4991453;28;20209;-73
2021/04/04 04:54:03;;;;;;;1.60;1.50;;;;;;;3.73;80.46;101263.31;4991423;28;20188;-74
2021/04/04 04:56:29;;;;;;;2.37;1.77;;;;;;;3.72;80.66;101261.66;4991435;28;20504;-72
2021/04/04 04:58:56;;;;;;;3.30;1.90;;;;;;;3.71;80.42;101254.63;4991384;28;20181;-73
2021/04/04 05:01:26;;;;;;;0.33;0.33;;;;;;;3.71;80.89;101245.69;4990146;28;20602;-72
2021/04/04 05:03:52;;;;;;;1.67;1.30;;;;;;;3.70;81.19;101252.16;5006491;28;20531;-74
2021/04/04 05:06:18;;;;;;;4.13;1.47;;;;;;;3.70;81.05;101250.28;4991449;28;20181;-73
2021/04/04 05:08:45;;;;;;;1.67;1.37;;;;;;;3.69;81.06;101248.66;4991417;28;20810;-72
2021/04/04 05:11:13;;;;;;;3.03;1.67;;;;;;;3.71;81.41;101259.22;4991050;28;20243;-73
2021/04/04 05:13:40;;;;;;;1.93;1.83;;;;;;;3.74;81.38;101256.81;4991230;28;20189;-73
2021/04/04 05:16:15;;;;;;;11.73;2.60;;;;;;;3.73;81.08;101255.19;4991506;28;20260;-72
2021/04/04 05:18:52;;;;;;;1.17;1.00;;;;;;;3.76;81.20;101254.72;4991468;28;20553;-73
2021/04/04 05:21:28;;;;;;;6.40;1.80;;;;;;;3.76;81.56;101259.28;4991291;28;20189;-73
2021/04/04 05:24:02;;;;;;;0.43;0.43;;;;;;;3.77;81.28;101255.53;4990912;28;20239;-72
2021/04/04 05:26:29;;;;;;;2.00;1.90;;;;;;;3.75;81.31;101258.47;4991313;28;20186;-73
2021/04/04 05:28:55;;;;;;;0.83;0.83;;;;;;;3.77;81.35;101250.97;4991415;28;20177;-73
2021/04/04 05:31:22;;;;;;;2.53;2.20;;;;;;;3.79;81.01;101256.13;4991516;28;20220;-73
2021/04/04 05:33:47;;;;;;;1.13;1.10;;;;;;;3.77;81.09;101250.13;4990955;28;20177;-73
2021/04/04 05:36:13;;;;;;;1.80;1.13;;;;;;;3.76;81.06;101252.03;4991300;28;20193;-73
2021/04/04 05:38:38;;;;;;;1.57;1.47;;;;;;;3.76;81.46;101248.47;4991438;28;20180;-72
2021/04/04 05:41:04;;;;;;;1.90;1.37;;;;;;;3.75;81.42;101252.25;4991046;28;20211;-73
2021/04/04 05:43:36;;;;;;;13.47;1.10;;;;;;;3.78;81.66;101251.78;4990980;28;20683;-72
2021/04/04 05:46:06;;;;;;;2.80;2.60;;;;;;;3.78;81.80;101254.47;4991096;28;20182;-73
2021/04/04 05:49:00;;;;;;;11.93;1.53;;;;;;;3.79;81.76;101256.94;4990987;28;20213;-73
2021/04/04 05:51:34;;;;;;;1.73;1.63;;;;;;;3.81;81.44;101251.28;4992397;28;20251;-73
2021/04/04 05:54:27;;;;;;;0.57;0.57;;;;;;;3.85;80.94;101244.31;4994693;28;20633;-73
2021/04/04 05:56:58;;;;;;;1.03;0.90;;;;;;;3.84;80.57;101254.28;4994706;28;20183;-73
2021/04/04 05:59:33;;;;;;;1.57;1.47;;;;;;;3.89;81.13;101254.38;4994769;28;20180;-73
2021/04/04 06:02:01;;;;;;;4.90;1.30;;;;;;;3.96;80.73;101265.03;4994455;28;20640;-73
2021/04/04 06:05:04;;;;;;;3.60;0.90;;;;;;;3.95;79.91;101265.28;4994709;28;20255;-73
2021/04/04 06:07:35;;;;;;;1.07;0.83;;;;;;;3.95;80.52;101266.09;4994628;28;20650;-73
2021/04/04 06:10:12;;;;;;;5.80;0.77;;;;;;;3.96;80.59;101254.22;4994635;28;20197;-72
2021/04/04 06:12:59;;;;;;;1.67;1.43;;;;;;;3.99;80.30;101259.13;4994208;28;20743;-74
2021/04/04 06:16:01;;;;;;;0.83;0.67;;;;;;;4.01;80.23;101262.38;4994406;28;20591;-73
2021/04/04 06:18:53;;;;;;;6.43;1.80;;;;;;;4.00;79.84;101254.53;4994522;28;20260;-72
2021/04/04 06:21:55;;;;;;;0.40;0.40;;;;;;;4.04;79.60;101261.06;4994299;28;20182;-73
2021/04/04 06:24:51;;;;;;;2.63;1.87;;;;;;;4.07;79.80;101261.41;4994303;28;20185;-73
2021/04/04 06:27:45;;;;;;;3.80;1.23;;;;;;;4.10;79.09;101268.22;4994046;28;20629;-74
2021/04/04 06:30:46;;;;;;;8.60;2.60;;;;;;;4.12;78.96;101261.47;4993980;28;20183;-73
2021/04/04 06:33:17;;;;;;;0.80;0.80;;;;;;;4.23;78.12;101256.22;4993576;28;20224;-73
2021/04/04 06:35:48;;;;;;;14.60;2.10;;;;;;;4.27;77.75;101258.19;4994031;28;20216;-73
2021/04/04 06:38:53;;;;;;;6.37;3.20;;;;;;;4.28;77.27;101257.09;4994099;28;20558;-72
2021/04/04 06:41:21;;;;;;;4.77;1.53;;;;;;;4.31;76.07;101267.41;4993898;28;20299;-73
2021/04/04 06:43:53;;;;;;;1.13;1.03;;;;;;;4.37;76.26;101266.44;4993671;28;20177;-73
2021/04/04 06:46:37;;;;;;;2.97;1.27;;;;;;;4.45;75.33;101270.59;4993551;28;20184;-73
2021/04/04 06:49:10;;;;;;;0.10;0.10;;;;;;;4.43;74.67;101275.44;4993655;28;20197;-73
2021/04/04 06:52:07;;;;;;;21.20;1.70;;;;;;;4.39;74.56;101271.59;4993397;28;20515;-73
2021/04/04 06:54:57;;;;;;;1.00;1.00;;;;;;;4.41;75.35;101264.84;4993515;28;20165;-73
2021/04/04 06:57:48;;;;;;;6.20;2.77;;;;;;;4.45;75.24;101276.00;4993325;28;20177;-73
2021/04/04 07:00:19;;;;;;;1.83;1.13;;;;;;;4.41;74.59;101272.16;4993370;28;20630;-73
2021/04/04 07:02:44;;;;;;;2.03;1.70;;;;;;;4.46;75.43;101267.63;4993113;28;20503;-73
2021/04/04 07:05:12;;;;;;;1.27;0.90;;;;;;;4.52;75.80;101263.13;4992311;28;20181;-73
2021/04/04 07:07:52;;;;;;;3.63;1.10;;;;;;;4.51;75.10;101261.47;4993627;28;20180;-73
2021/04/04 07:10:23;;;;;;;1.60;1.50;;;;;;;4.48;75.36;101259.25;4993599;28;20273;-72
2021/04/04 07:12:54;;;;;;;8.00;1.27;;;;;;;4.49;75.74;101263.63;4993333;28;20208;-74
2021/04/04 07:15:35;;;;;;;1.33;0.70;;;;;;;4.46;73.92;101259.50;4993332;28;20173;-73
2021/04/04 07:18:06;;;;;;;1.23;0.97;;;;;;;4.51;74.35;101260.66;4993229;28;20252;-73
2021/04/04 07:20:42;;;;;;;7.03;2.70;;;;;;;4.61;73.84;101267.00;4993106;28;20181;-73
2021/04/04 07:23:45;;;;;;;4.27;1.70;;;;;;;4.66;72.03;101267.09;4993521;28;20166;-74
2021/04/04 07:26:22;;;;;;;0.50;0.50;;;;;;;4.71;72.14;101269.03;4993272;28;20181;-74
2021/04/04 07:29:12;;;;;;;8.90;2.53;;;;;;;4.58;72.66;101272.09;4993135;28;20234;-73
2021/04/04 07:31:59;;;;;;;9.47;1.00;;;;;;;4.50;71.92;101270.66;4993201;28;20197;-73
2021/04/04 07:34:28;;;;;;;2.50;1.23;;;;;;;4.45;72.54;101263.28;4993315;28;20593;-74
2021/04/04 07:37:03;;;;;;;1.80;1.00;;;;;;;4.52;70.94;101265.81;4998640;28;20235;-73
2021/04/04 07:39:44;;;;;;;1.07;0.93;;;;;;;4.53;70.09;101269.34;5001219;28;20189;-74
2021/04/04 07:42:17;;;;;;;1.17;1.03;;;;;;;4.50;70.17;101276.09;4994586;28;20181;-73
2021/04/04 07:44:53;;;;;;;0.90;0.90;;;;;;;4.52;69.51;101271.22;4992818;28;20818;-74
2021/04/04 07:47:41;;;;;;;2.60;1.43;;;;;;;4.56;69.81;101263.44;4992597;28;20188;-74
2021/04/04 07:50:13;;;;;;;2.10;1.87;;;;;;;4.58;69.83;101264.00;4992556;28;20165;-73
2021/04/04 07:53:00;;;;;;;11.03;1.70;;;;;;;4.64;69.49;101261.13;4992428;28;20715;-74
2021/04/04 07:55:42;;;;;;;6.63;2.13;;;;;;;4.73;69.86;101256.88;4992712;28;20528;-73
2021/04/04 07:58:31;;;;;;;2.10;1.90;;;;;;;4.84;69.79;101263.22;4992817;28;20192;-73
2021/04/04 08:01:01;;;;;;;3.80;1.07;;;;;;;4.82;68.13;101262.69;4992066;28;20332;-74
2021/04/04 08:03:59;;;;;;;7.07;1.67;;;;;;;4.71;67.98;101264.44;4992280;28;20180;-73
2021/04/04 08:06:35;;;;;;;1.33;1.23;;;;;;;4.71;68.79;101271.72;4992010;28;20193;-74
2021/04/04 08:09:13;;;;;;;1.80;1.70;;;;;;;4.74;68.73;101272.03;4992169;28;20169;-73
2021/04/04 08:11:48;;;;;;;1.73;1.63;;;;;;;4.76;68.45;101272.59;4992051;28;20663;-74
2021/04/04 08:14:20;;;;;;;2.20;1.67;;;;;;;4.80;67.67;101269.41;4991516;28;20177;-73
2021/04/04 08:16:57;;;;;;;0.60;0.60;;;;;;;4.73;67.38;101261.47;4992274;28;20663;-74
2021/04/04 08:19:23;;;;;;;4.30;1.83;;;;;;;4.76;67.80;101275.31;4991874;28;20184;-74
2021/04/04 08:21:54;;;;;;;2.23;1.73;;;;;;;4.83;67.82;101272.44;4991619;28;20189;-73
2021/04/04 08:24:31;;;;;;;5.63;1.20;;;;;;;4.78;66.85;101270.50;4991899;28;20479;-73
2021/04/04 08:27:01;;;;;;;3.97;0.83;;;;;;;4.81;67.71;101263.75;4991803;28;20177;-74
2021/04/04 08:29:33;;;;;;;0.30;0.30;;;;;;;4.87;67.37;101270.03;4991773;28;20299;-74
2021/04/04 08:32:02;;;;;;;1.27;0.80;;;;;;;4.93;67.10;101269.84;4991570;28;20208;-73
2021/04/04 08:34:40;;;;;;;1.07;1.07;;;;;;;4.96;66.22;101276.66;4991824;28;20214;-73
2021/04/04 08:37:27;;;;;;;3.53;0.67;;;;;;;4.89;66.15;101276.00;4991872;28;20256;-74
2021/04/04 08:39:57;;;;;;;2.80;1.53;;;;;;;4.89;66.77;101267.88;4991866;28;20649;-73
2021/04/04 08:42:23;;;;;;;0.43;0.43;;;;;;;4.94;66.82;101281.50;4991550;28;20471;-73
2021/04/04 08:45:04;;;;;;;1.80;1.00;;;;;;;4.90;67.09;101264.91;4991800;28;20204;-75
2021/04/04 08:47:32;;;;;;;1.13;1.13;;;;;;;4.97;67.22;101260.13;4991607;28;20179;-74
2021/04/04 08:50:07;;;;;;;12.43;1.97;;;;;;;5.05;66.79;101273.22;4991569;28;20181;-72
2021/04/04 08:52:37;;;;;;;1.13;0.97;;;;;;;5.05;66.03;101273.22;4991167;28;20656;-74
2021/04/04 08:55:04;;;;;;;3.63;1.13;;;;;;;5.02;66.63;101268.31;4991666;28;20180;-73
2021/04/04 08:57:43;;;;;;;1.50;0.50;;;;;;;4.98;66.48;101267.19;4991458;28;20193;-74
2021/04/04 09:00:11;;;;;;;2.80;2.13;;;;;;;4.98;67.25;101266.38;4991605;28;20224;-74
2021/04/04 09:03:01;;;;;;;1.20;1.10;;;;;;;5.08;67.33;101263.78;4991213;28;20181;-74
2021/04/04 09:05:30;;;;;;;0.87;0.87;;;;;;;5.12;67.27;101272.22;5006161;28;20517;-74
2021/04/04 09:07:58;;;;;;;1.73;1.50;;;;;;;5.17;67.08;101272.25;4991048;28;20176;-72
2021/04/04 09:10:25;;;;;;;0.53;0.53;;;;;;;5.11;66.59;101265.97;5006330;28;20188;-72
2021/04/04 09:12:51;;;;;;;1.13;1.03;;;;;;;5.14;66.64;101270.88;4990877;28;20263;-73
2021/04/04 09:15:16;;;;;;;1.43;1.00;;;;;;;5.14;66.49;101268.16;4990577;28;20173;-73
2021/04/04 09:17:57;;;;;;;0.40;0.40;;;;;;;5.18;66.45;101266.56;4990793;28;20177;-74
2021/04/04 09:20:38;;;;;;;0.97;0.70;;;;;;;5.16;66.38;101270.63;4989692;28;20239;-74
2021/04/04 09:23:04;;;;;;;2.47;1.00;;;;;;;5.23;67.02;101263.13;4982879;28;20189;-73
2021/04/04 09:25:31;;;;;;;1.43;1.33;;;;;;;5.28;67.56;101261.28;4990168;28;20548;-74
2021/04/04 09:28:04;;;;;;;3.37;2.60;;;;;;;5.31;67.23;101265.34;4994953;28;20189;-74
2021/04/04 09:30:34;;;;;;;0.93;0.93;;;;;;;5.31;67.22;101259.94;5006792;28;20174;-74
2021/04/04 09:33:04;;;;;;;0.10;0.10;;;;;;;5.38;67.26;101250.53;4975334;28;20214;-73
2021/04/04 09:35:31;;;;;;;5.73;1.23;;;;;;;5.29;66.97;101249.34;4975460;28;20189;-73
2021/04/04 09:38:05;;;;;;;0.37;0.30;;;;;;;5.31;66.83;101244.50;4975112;28;20182;-74
2021/04/04 09:40:32;;;;;;;0.73;0.73;;;;;;;5.41;66.81;101242.97;4975001;28;20268;-73
2021/04/04 09:43:09;;;;;;;0.60;0.60;;;;;;;5.50;66.45;101244.97;4975139;28;20185;-73
2021/04/04 09:45:35;;;;;;;0.33;0.33;;;;;;;5.66;65.79;101248.63;4974971;28;20177;-73
2021/04/04 09:48:17;;;;;;;0.20;0.20;;;;;;;5.76;65.90;101231.59;4987255;28;20525;-74
2021/04/04 09:50:42;;;;;;;0.10;0.10;;;;;;;5.70;64.76;101235.34;4994718;28;20260;-73
2021/04/04 09:53:08;;;;;;;0.77;0.77;;;;;;;5.75;65.31;101235.38;4994078;28;20664;-73
2021/04/04 09:55:33;;;;;;;1.17;0.80;;;;;;;5.75;65.47;101244.34;4994526;28;20184;-73
2021/04/04 09:58:01;;;;;;;0.30;0.30;;;;;;;5.75;64.89;101246.22;4994550;28;20688;-74
2021/04/04 10:00:35;;;;;;;0.60;0.37;;;;;;;5.69;65.05;101231.81;4994537;28;20265;-73
2021/04/04 10:03:10;;;;;;;0.80;0.80;;;;;;;5.62;65.44;101239.34;4993396;28;20240;-73
2021/04/04 10:05:39;;;;;;;3.43;0.97;;;;;;;5.71;65.86;101237.81;5007713;28;20177;-72
2021/04/04 10:08:10;;;;;;;0.80;0.80;;;;;;;5.70;66.56;101241.59;4994616;28;20177;-73
2021/04/04 10:10:37;;;;;;;0.60;0.60;;;;;;;5.76;66.42;101237.84;4994257;28;20196;-73
2021/04/04 10:13:03;;;;;;;0.10;0.10;;;;;;;5.74;65.68;101233.75;4994011;28;20247;-73
2021/04/04 10:15:39;;;;;;;0.67;0.67;;;;;;;5.62;66.28;101232.03;4994112;28;20181;-73
2021/04/04 10:18:04;;;;;;;0.10;0.10;;;;;;;5.58;66.79;101221.97;4994213;28;20169;-71
2021/04/04 10:20:32;;;;;;;0.13;0.10;;;;;;;5.55;67.04;101223.31;4993955;28;20181;-72
2021/04/04 10:22:58;;;;;;;0.10;0.10;;;;;;;5.62;67.47;101229.31;4994048;28;20216;-73
2021/04/04 10:25:24;;;;;;;0.57;0.57;;;;;;;5.72;67.46;101223.16;4991835;28;20256;-73
2021/04/04 10:28:01;;;;;;;0.20;0.17;;;;;;;5.74;66.28;101218.31;4993898;28;20192;-75
2021/04/04 10:30:31;;;;;;;0.53;0.53;;;;;;;5.82;67.64;101217.81;4993990;28;20231;-73
2021/04/04 10:33:17;;;;;;;0.40;0.30;;;;;;;5.89;67.33;101210.28;4993672;28;20574;-73
2021/04/04 10:35:44;;;;;;;1.07;0.33;;;;;;;5.91;67.83;101207.31;4993513;28;20185;-73
2021/04/04 10:38:19;;;;;;;1.10;0.93;;;;;;;5.97;68.28;101204.41;4992417;28;20181;-73
2021/04/04 10:40:46;;;;;;;0.10;0.10;;;;;;;5.99;67.60;101198.72;4993386;28;20644;-74
2021/04/04 10:43:13;;;;;;;0.00;0.00;;;;;;;5.87;67.64;101188.03;4993411;28;20736;-74
2021/04/04 10:45:58;;;;;;;7.53;0.40;;;;;;;5.84;67.59;101185.84;4993337;28;20327;-73
2021/04/04 10:48:24;;;;;;;4.37;0.50;;;;;;;5.89;68.20;101188.56;5008285;28;20181;-74
2021/04/04 10:50:50;;;;;;;0.10;0.10;;;;;;;5.92;67.56;101185.38;4993263;28;20482;-74
2021/04/04 10:53:17;;;;;;;1.10;0.63;;;;;;;5.93;67.03;101188.91;4992980;28;20572;-73
2021/04/04 10:55:43;;;;;;;20.30;3.40;;;;;;;5.92;66.93;101185.38;4993191;28;20173;-75
2021/04/04 10:58:09;;;;;;;0.23;0.23;;;;;;;5.90;67.49;101176.69;4993096;28;20177;-73
2021/04/04 11:00:35;;;;;;;0.77;0.40;;;;;;;5.98;67.87;101178.09;4991236;28;20533;-72
2021/04/04 11:03:02;;;;;;;0.43;0.43;;;;;;;6.08;68.67;101169.22;4991562;28;20639;-75
2021/04/04 11:05:27;;;;;;;0.93;0.30;;;;;;;6.02;69.90;101167.53;4992304;28;20185;-74
2021/04/04 11:07:53;;;;;;;0.23;0.23;;;;;;;5.99;70.34;101162.63;4992723;28;20248;-72
2021/04/04 11:10:18;;;;;;;0.20;0.20;;;;;;;5.91;69.87;101169.34;4993101;28;20660;-73
2021/04/04 11:12:44;;;;;;;0.57;0.57;;;;;;;5.90;70.39;101165.00;4992916;28;20197;-73
2021/04/04 11:15:14;;;;;;;0.40;0.40;;;;;;;5.94;70.24;101164.25;4993077;28;20189;-72
2021/04/04 11:17:44;;;;;;;0.30;0.30;;;;;;;5.90;70.46;101157.69;4993165;28;20240;-73
2021/04/04 11:20:16;;;;;;;0.43;0.43;;;;;;;5.89;70.87;101147.09;4992932;28;20648;-75
2021/04/04 11:22:42;;;;;;;0.70;0.60;;;;;;;5.90;70.39;101146.84;4992777;28;20184;-74
2021/04/04 11:25:10;;;;;;;0.67;0.40;;;;;;;5.89;70.76;101150.63;4991362;28;20279;-73
2021/04/04 11:27:47;;;;;;;0.33;0.33;;;;;;;5.83;69.71;101138.13;4992822;28;20173;-75
2021/04/04 11:30:36;;;;;;;0.63;0.30;;;;;;;5.79;69.66;101137.00;4992699;28;20664;-74
2021/04/04 11:33:17;;;;;;;0.37;0.30;;;;;;;5.87;69.33;101143.81;4992796;28;20209;-73
2021/04/04 11:36:08;;;;;;;0.00;0.00;;;;;;;5.97;69.70;101131.16;4992704;28;20224;-73
2021/04/04 11:38:36;;;;;;;2.93;0.47;;;;;;;6.13;69.74;101133.97;4990955;28;20177;-74
2021/04/04 11:41:19;;;;;;;0.10;0.10;;;;;;;6.02;67.76;101124.94;4991611;28;20595;-73
2021/04/04 11:43:48;;;;;;;0.00;0.00;;;;;;;6.02;68.92;101116.81;4992284;28;20177;-73
2021/04/04 11:46:51;;;;;;;0.23;0.23;;;;;;;6.00;68.92;101118.97;4992229;28;20173;-73
2021/04/04 11:49:38;;;;;;;0.23;0.23;;;;;;;6.00;69.01;101118.16;4991954;28;20203;-74
2021/04/04 11:52:09;;;;;;;0.50;0.50;;;;;;;5.99;70.50;101125.47;4992108;28;20208;-73
2021/04/04 11:54:41;;;;;;;0.47;0.47;;;;;;;6.01;69.80;101111.66;4992328;28;20173;-76
2021/04/04 11:57:18;;;;;;;0.40;0.40;;;;;;;6.03;70.27;101121.16;4992392;28;20279;-76